Time;durP1;ratioP1;P1;durP2;ratioP2;P2;SDS_P1;SDS_P2;PMS_P1;PMS_P2;Temp;Humidity;BMP_temperature;BMP_pressure;BME280_temperature;BME280_humidity;BME280_pressure;Samples;Min_cycle;Max_cycle;Signal;HPM_P1;HPM_P2
2023/05/04 00:00:06;;;;;;;1.55;0.60;;;18.00;53.60;;;;;;4140465;28;20095;-54
2023/05/04 00:02:28;;;;;;;0.80;0.40;;;18.00;53.70;;;;;;4142145;28;20053;-49
2023/05/04 00:04:54;;;;;;;0.50;0.40;;;18.00;53.70;;;;;;4142340;28;20041;-52
2023/05/04 00:07:16;;;;;;;1.40;0.60;;;18.00;53.70;;;;;;4140665;28;20530;-51
2023/05/04 00:09:39;;;;;;;0.75;0.40;;;18.00;53.70;;;;;;4139870;28;20406;-51
2023/05/04 00:12:02;;;;;;;1.40;0.65;;;18.00;53.70;;;;;;4143816;28;20103;-53
2023/05/04 00:14:24;;;;;;;0.63;0.50;;;18.00;53.80;;;;;;4143703;28;20041;-53
2023/05/04 00:16:47;;;;;;;2.05;0.52;;;18.00;53.70;;;;;;4143023;28;20441;-54
2023/05/04 00:19:09;;;;;;;0.57;0.40;;;18.00;53.60;;;;;;4141153;28;20041;-53
2023/05/04 00:21:32;;;;;;;1.48;0.50;;;18.00;53.50;;;;;;4133191;28;20053;-54
2023/05/04 00:23:54;;;;;;;0.60;0.60;;;18.00;53.50;;;;;;4141229;28;20034;-56
2023/05/04 00:26:17;;;;;;;0.82;0.50;;;18.00;53.50;;;;;;4134174;28;20432;-57
2023/05/04 00:28:39;;;;;;;1.45;0.65;;;18.00;53.40;;;;;;4141954;28;20125;-57
2023/05/04 00:31:02;;;;;;;1.13;0.52;;;18.10;53.50;;;;;;4129497;28;20308;-56
2023/05/04 00:33:24;;;;;;;0.35;0.35;;;18.10;53.50;;;;;;4143716;28;20631;-52
2023/05/04 00:35:47;;;;;;;0.82;0.40;;;18.10;53.40;;;;;;4136908;28;20461;-55
2023/05/04 00:38:09;;;;;;;0.65;0.40;;;18.10;53.50;;;;;;4142458;28;20069;-55
2023/05/04 00:40:33;;;;;;;1.00;0.40;;;18.10;53.50;;;;;;4134905;28;20041;-53
2023/05/04 00:42:56;;;;;;;1.20;0.50;;;18.10;53.50;;;;;;4141612;28;20073;-57
2023/05/04 00:45:19;;;;;;;0.73;0.40;;;18.10;53.60;;;;;;4133025;28;20121;-55
2023/05/04 00:47:42;;;;;;;0.70;0.47;;;18.10;53.50;;;;;;4138973;28;20129;-53
2023/05/04 00:50:05;;;;;;;1.00;0.40;;;18.10;53.50;;;;;;4130227;28;20038;-56
2023/05/04 00:52:28;;;;;;;1.30;0.53;;;18.10;53.50;;;;;;4139834;28;20529;-54
2023/05/04 00:54:52;;;;;;;0.40;0.30;;;18.10;53.50;;;;;;4141471;28;20037;-55
2023/05/04 00:57:16;;;;;;;1.90;0.55;;;18.10;53.50;;;;;;4144574;28;20458;-55
2023/05/04 00:59:38;;;;;;;1.48;0.60;;;18.10;53.50;;;;;;4144002;28;20481;-52
2023/05/04 01:02:01;;;;;;;0.50;0.30;;;18.10;53.40;;;;;;4139725;28;20556;-53
2023/05/04 01:04:23;;;;;;;1.52;0.60;;;18.10;53.40;;;;;;4126386;28;20035;-53
2023/05/04 01:07:09;;;;;;;0.93;0.57;;;18.10;53.40;;;;;;4137756;28;20042;-50
2023/05/04 01:10:11;;;;;;;0.40;0.40;;;18.20;53.40;;;;;;4138932;28;20153;-53
2023/05/04 01:13:13;;;;;;;0.68;0.47;;;18.10;53.40;;;;;;4140933;28;20037;-51
2023/05/04 01:15:36;;;;;;;1.90;0.65;;;18.20;53.40;;;;;;4137151;28;20034;-56
2023/05/04 01:17:58;;;;;;;1.23;0.60;;;18.10;53.30;;;;;;4143607;28;20038;-55
2023/05/04 01:20:21;;;;;;;0.98;0.50;;;18.20;53.30;;;;;;4142695;28;20049;-54
2023/05/04 01:22:44;;;;;;;1.05;0.45;;;18.20;53.20;;;;;;4124570;28;20053;-48
2023/05/04 01:25:07;;;;;;;1.40;0.47;;;18.20;53.10;;;;;;4132918;28;20038;-56
2023/05/04 01:27:47;;;;;;;1.48;0.70;;;18.20;53.10;;;;;;4121166;28;20092;-55
2023/05/04 01:30:25;;;;;;;1.60;0.60;;;18.20;53.10;;;;;;4143207;28;20434;-55
2023/05/04 01:32:49;;;;;;;1.30;0.63;;;18.30;53.10;;;;;;4143123;28;20124;-51
2023/05/04 01:35:12;;;;;;;1.55;0.60;;;18.30;53.80;;;;;;4142272;28;20036;-55
2023/05/04 01:37:34;;;;;;;1.05;0.77;;;18.30;53.20;;;;;;4144779;28;20631;-53
2023/05/04 01:39:57;;;;;;;0.65;0.50;;;18.30;53.20;;;;;;4140544;28;20049;-55
2023/05/04 01:42:19;;;;;;;1.23;0.55;;;18.30;53.10;;;;;;4141476;28;20516;-52
2023/05/04 01:44:42;;;;;;;1.08;0.52;;;18.30;53.10;;;;;;4143467;28;20045;-56
2023/05/04 01:47:04;;;;;;;1.73;0.70;;;18.30;53.30;;;;;;4143314;28;20482;-53
2023/05/04 01:49:27;;;;;;;0.93;0.50;;;18.40;53.20;;;;;;4141935;28;20482;-55
2023/05/04 01:51:49;;;;;;;2.67;0.70;;;18.40;53.10;;;;;;4140744;28;20374;-53
2023/05/04 01:54:12;;;;;;;1.67;0.60;;;18.40;53.10;;;;;;4149200;28;20037;-56
2023/05/04 01:56:34;;;;;;;1.08;0.60;;;18.40;53.10;;;;;;4134507;28;20124;-52
2023/05/04 01:58:56;;;;;;;1.38;0.70;;;18.40;53.10;;;;;;4141148;28;20038;-55
2023/05/04 02:01:19;;;;;;;1.77;0.68;;;18.40;53.00;;;;;;4144071;28;20482;-53
2023/05/04 02:03:43;;;;;;;0.60;0.45;;;18.50;53.10;;;;;;4143759;28;20042;-50
2023/05/04 02:06:05;;;;;;;0.98;0.60;;;18.50;53.10;;;;;;4140485;28;20030;-54
2023/05/04 02:08:28;;;;;;;1.13;0.70;;;18.50;53.00;;;;;;4138550;28;20431;-57
2023/05/04 02:10:50;;;;;;;1.05;0.70;;;18.60;53.10;;;;;;4150709;28;20045;-55
2023/05/04 02:13:13;;;;;;;1.05;0.65;;;18.60;53.00;;;;;;4143606;28;20061;-56
2023/05/04 02:15:36;;;;;;;0.82;0.60;;;18.60;53.00;;;;;;4143752;28;20422;-55
2023/05/04 02:17:58;;;;;;;1.60;0.52;;;18.60;53.00;;;;;;4142827;28;20034;-53
2023/05/04 02:20:20;;;;;;;2.28;0.60;;;18.70;53.00;;;;;;4142708;28;20065;-57
2023/05/04 02:22:43;;;;;;;0.75;0.50;;;18.70;53.00;;;;;;4135987;28;20057;-56
2023/05/04 02:25:06;;;;;;;0.50;0.50;;;18.70;52.90;;;;;;4131479;28;20031;-55
2023/05/04 02:27:28;;;;;;;1.30;0.60;;;18.70;52.90;;;;;;4139273;28;20045;-56
2023/05/04 02:29:51;;;;;;;1.42;0.68;;;18.70;52.90;;;;;;4144303;28;20077;-54
2023/05/04 02:32:13;;;;;;;0.82;0.50;;;18.70;52.90;;;;;;4143285;28;20037;-55
2023/05/04 02:34:36;;;;;;;1.13;0.60;;;18.80;53.00;;;;;;4130879;28;20038;-56
2023/05/04 02:36:58;;;;;;;1.75;0.50;;;18.80;53.00;;;;;;4136373;28;20039;-55
2023/05/04 02:39:21;;;;;;;1.60;0.68;;;18.80;52.90;;;;;;4145571;28;20190;-55
2023/05/04 02:41:43;;;;;;;2.00;0.50;;;18.80;53.00;;;;;;4142107;28;20056;-54
2023/05/04 02:44:06;;;;;;;1.48;1.02;;;18.80;53.00;;;;;;4146347;28;20534;-55
2023/05/04 02:46:28;;;;;;;1.20;0.60;;;18.80;52.90;;;;;;4141400;28;20037;-57
2023/05/04 02:48:50;;;;;;;1.23;0.68;;;18.90;53.00;;;;;;4145544;28;20095;-55
2023/05/04 02:51:13;;;;;;;0.98;0.60;;;18.90;53.10;;;;;;4141713;28;20478;-56
2023/05/04 02:53:35;;;;;;;1.13;0.60;;;18.90;53.00;;;;;;4137574;28;20079;-55
2023/05/04 02:55:58;;;;;;;1.13;0.75;;;18.90;53.00;;;;;;4144753;28;20120;-54
2023/05/04 02:58:20;;;;;;;1.75;0.73;;;19.00;53.10;;;;;;4141582;28;20033;-56
2023/05/04 03:00:42;;;;;;;2.65;1.25;;;19.00;53.00;;;;;;4131012;28;20092;-58
2023/05/04 03:03:06;;;;;;;1.70;0.63;;;19.00;53.10;;;;;;4136887;28;20042;-56
2023/05/04 03:05:28;;;;;;;2.75;0.80;;;19.00;53.10;;;;;;4145759;28;20030;-55
2023/05/04 03:07:50;;;;;;;0.70;0.50;;;19.10;53.10;;;;;;4134344;28;20469;-56
2023/05/04 03:10:13;;;;;;;1.67;0.63;;;19.10;53.10;;;;;;4145065;28;20766;-55
2023/05/04 03:12:35;;;;;;;2.67;0.63;;;19.10;53.10;;;;;;4133869;28;20041;-56
2023/05/04 03:14:58;;;;;;;1.52;0.50;;;19.20;53.10;;;;;;4146704;28;20418;-53
2023/05/04 03:17:20;;;;;;;2.05;0.60;;;19.20;53.00;;;;;;4145122;28;20037;-57
2023/05/04 03:19:42;;;;;;;0.40;0.40;;;19.30;52.90;;;;;;4130965;28;20613;-55
2023/05/04 03:22:05;;;;;;;1.50;0.60;;;19.30;52.90;;;;;;4139264;28;20082;-51
2023/05/04 03:24:27;;;;;;;1.48;0.65;;;19.30;52.80;;;;;;4140052;28;20046;-56
2023/05/04 03:26:50;;;;;;;1.83;0.77;;;19.40;52.80;;;;;;4145529;28;20532;-54
2023/05/04 03:29:12;;;;;;;1.35;0.30;;;19.40;52.80;;;;;;4138785;28;20124;-55
2023/05/04 03:31:35;;;;;;;1.35;0.50;;;19.50;52.70;;;;;;4129759;28;20048;-53
2023/05/04 03:33:57;;;;;;;0.90;0.50;;;19.50;52.60;;;;;;4138524;28;20496;-56
2023/05/04 03:36:20;;;;;;;1.10;0.40;;;19.50;52.60;;;;;;4144642;28;20081;-54
2023/05/04 03:38:42;;;;;;;0.80;0.50;;;19.60;52.60;;;;;;4122830;28;20070;-52
2023/05/04 03:41:04;;;;;;;1.70;0.50;;;19.70;52.60;;;;;;4142375;28;20406;-55
2023/05/04 03:43:27;;;;;;;0.90;0.40;;;19.70;52.50;;;;;;4144745;28;20042;-51
2023/05/04 03:45:49;;;;;;;1.15;0.50;;;19.70;52.40;;;;;;4141501;28;20391;-55
2023/05/04 03:48:12;;;;;;;1.92;0.50;;;19.80;52.40;;;;;;4134506;28;20038;-54
2023/05/04 03:50:34;;;;;;;0.77;0.50;;;19.90;52.40;;;;;;4142078;28;20042;-56
2023/05/04 03:52:57;;;;;;;1.67;0.50;;;19.90;52.30;;;;;;4142674;28;20041;-57
2023/05/04 03:55:19;;;;;;;0.50;0.50;;;20.00;52.20;;;;;;4146440;28;20125;-54
2023/05/04 03:57:42;;;;;;;1.30;0.45;;;20.10;52.20;;;;;;4144488;28;20445;-57
2023/05/04 04:00:05;;;;;;;0.60;0.40;;;20.10;52.00;;;;;;4138992;28;20069;-58
2023/05/04 04:02:27;;;;;;;0.68;0.30;;;20.10;51.90;;;;;;4145346;28;20045;-58
2023/05/04 04:04:50;;;;;;;2.30;0.45;;;20.20;51.90;;;;;;4146420;28;20033;-55
2023/05/04 04:07:12;;;;;;;0.93;0.50;;;20.20;51.80;;;;;;4144555;28;20455;-55
2023/05/04 04:09:34;;;;;;;0.60;0.40;;;20.20;51.80;;;;;;4144926;28;20042;-56
2023/05/04 04:11:57;;;;;;;0.32;0.30;;;20.20;51.80;;;;;;4145766;28;20149;-54
2023/05/04 04:14:19;;;;;;;0.40;0.40;;;20.30;51.80;;;;;;4135110;28;20030;-54
2023/05/04 04:16:42;;;;;;;0.52;0.50;;;20.20;51.80;;;;;;4145414;28;20041;-54
2023/05/04 04:19:05;;;;;;;0.40;0.32;;;20.30;51.90;;;;;;4143995;28;20082;-54
2023/05/04 04:21:28;;;;;;;0.65;0.40;;;20.30;51.90;;;;;;4140694;28;20046;-58
2023/05/04 04:23:50;;;;;;;0.57;0.43;;;20.40;51.80;;;;;;4144931;28;20466;-54
2023/05/04 04:26:13;;;;;;;0.52;0.30;;;20.40;51.70;;;;;;4143193;28;20033;-56
2023/05/04 04:28:35;;;;;;;0.90;0.30;;;20.50;51.60;;;;;;4143644;28;20135;-57
2023/05/04 04:30:58;;;;;;;0.30;0.30;;;20.60;51.50;;;;;;4144381;28;20045;-53
2023/05/04 04:33:20;;;;;;;0.90;0.40;;;20.60;51.40;;;;;;4144305;28;20122;-55
2023/05/04 04:35:43;;;;;;;1.65;0.63;;;20.70;51.40;;;;;;4129925;28;20039;-57
2023/05/04 04:38:05;;;;;;;0.82;0.40;;;20.80;51.30;;;;;;4143256;28;20091;-57
2023/05/04 04:40:28;;;;;;;0.80;0.30;;;20.90;51.20;;;;;;4142658;28;20076;-56
2023/05/04 04:42:51;;;;;;;0.73;0.43;;;20.90;51.00;;;;;;4133500;28;20461;-58
2023/05/04 04:45:14;;;;;;;0.57;0.40;;;21.00;51.00;;;;;;4136118;28;20429;-58
2023/05/04 04:47:38;;;;;;;1.70;0.40;;;21.10;50.90;;;;;;4138670;28;20096;-55
2023/05/04 04:50:03;;;;;;;0.90;0.30;;;21.20;50.80;;;;;;4121140;28;20438;-56
2023/05/04 04:52:25;;;;;;;0.30;0.30;;;21.20;50.70;;;;;;4135979;28;20060;-58
2023/05/04 04:54:48;;;;;;;0.88;0.40;;;21.30;50.60;;;;;;4137598;28;20406;-56
2023/05/04 04:57:10;;;;;;;1.92;0.45;;;21.40;50.60;;;;;;4123390;28;20105;-57
2023/05/04 04:59:33;;;;;;;0.98;0.57;;;21.40;50.50;;;;;;4132508;28;20041;-57
2023/05/04 05:01:57;;;;;;;0.77;0.40;;;21.50;51.10;;;;;;4142462;28;20425;-56
2023/05/04 05:04:21;;;;;;;0.63;0.40;;;21.50;50.30;;;;;;4137978;28;20121;-56
2023/05/04 05:06:43;;;;;;;1.65;0.55;;;21.60;50.40;;;;;;4134285;28;20594;-57
2023/05/04 05:09:06;;;;;;;1.23;0.57;;;21.60;50.20;;;;;;4139052;28;20124;-58
2023/05/04 05:11:28;;;;;;;0.52;0.30;;;21.60;50.20;;;;;;4133825;28;20144;-55
2023/05/04 05:13:50;;;;;;;0.35;0.35;;;21.70;50.20;;;;;;4141177;28;20561;-55
2023/05/04 05:16:13;;;;;;;0.88;0.45;;;21.70;50.20;;;;;;4136462;28;20108;-57
2023/05/04 05:18:35;;;;;;;1.63;0.85;;;21.80;50.10;;;;;;4142213;28;20030;-57
2023/05/04 05:20:58;;;;;;;0.32;0.32;;;21.80;50.00;;;;;;4135414;28;20452;-57
2023/05/04 05:23:20;;;;;;;0.85;0.75;;;21.80;50.10;;;;;;4140809;28;20140;-58
2023/05/04 05:25:43;;;;;;;1.67;0.70;;;21.80;50.20;;;;;;4137932;28;20046;-56
2023/05/04 05:28:06;;;;;;;0.67;0.60;;;21.70;50.20;;;;;;4143145;28;20038;-56
2023/05/04 05:30:28;;;;;;;1.23;0.68;;;21.70;50.40;;;;;;4141947;28;20349;-54
2023/05/04 05:32:52;;;;;;;0.80;0.50;;;21.60;50.50;;;;;;4143453;28;20048;-55
2023/05/04 05:35:14;;;;;;;0.68;0.60;;;21.60;50.60;;;;;;4143002;28;20123;-55
2023/05/04 05:37:37;;;;;;;1.65;0.57;;;21.60;50.60;;;;;;4123482;28;20034;-55
2023/05/04 05:39:59;;;;;;;1.58;0.80;;;21.60;50.70;;;;;;4140230;28;20526;-57
2023/05/04 05:42:22;;;;;;;1.67;0.60;;;21.60;50.70;;;;;;4137981;28;20085;-54
2023/05/04 05:44:44;;;;;;;0.70;0.50;;;21.60;50.80;;;;;;4141454;28;20517;-54
2023/05/04 05:47:07;;;;;;;1.08;0.60;;;21.60;50.80;;;;;;4126258;28;20042;-57
2023/05/04 05:49:30;;;;;;;1.33;0.77;;;21.50;50.70;;;;;;4141085;28;20418;-57
2023/05/04 05:51:52;;;;;;;2.55;0.70;;;21.60;50.80;;;;;;4135190;28;20044;-53
2023/05/04 05:54:15;;;;;;;2.15;1.00;;;21.50;50.80;;;;;;4143367;28;20042;-52
2023/05/04 05:56:37;;;;;;;1.05;0.70;;;21.50;50.80;;;;;;4138583;28;20050;-53
2023/05/04 05:59:00;;;;;;;1.60;0.70;;;21.50;50.80;;;;;;4137483;28;20450;-55
2023/05/04 06:01:22;;;;;;;1.50;0.60;;;21.50;50.90;;;;;;4133708;28;20196;-57
2023/05/04 06:03:44;;;;;;;0.95;0.68;;;21.50;51.00;;;;;;4143958;28;20084;-57
2023/05/04 06:06:07;;;;;;;0.65;0.65;;;21.50;51.00;;;;;;4140968;28;20033;-52
2023/05/04 06:08:30;;;;;;;1.50;0.57;;;21.40;51.10;;;;;;4142268;28;20046;-56
2023/05/04 06:10:53;;;;;;;1.27;0.68;;;21.40;51.10;;;;;;4140644;28;20030;-57
2023/05/04 06:13:15;;;;;;;2.85;0.80;;;21.40;51.30;;;;;;4140767;28;20033;-52
2023/05/04 06:15:38;;;;;;;1.38;0.80;;;21.40;51.40;;;;;;4140134;28;20038;-56
2023/05/04 06:18:00;;;;;;;2.22;0.68;;;21.40;51.40;;;;;;4130230;28;20044;-54
2023/05/04 06:20:23;;;;;;;1.70;0.82;;;21.40;51.50;;;;;;4141083;28;20383;-54
2023/05/04 06:22:45;;;;;;;1.08;0.52;;;21.40;51.50;;;;;;4132724;28;20498;-56
2023/05/04 06:25:08;;;;;;;1.65;0.60;;;21.40;52.10;;;;;;4139689;28;20124;-56
2023/05/04 06:27:31;;;;;;;1.75;0.65;;;21.40;51.50;;;;;;4131466;28;20080;-54
2023/05/04 06:29:54;;;;;;;1.63;0.65;;;21.40;51.50;;;;;;4127004;28;20038;-57
2023/05/04 06:32:16;;;;;;;1.15;0.65;;;21.50;51.70;;;;;;4138435;28;20497;-54
2023/05/04 06:34:39;;;;;;;0.50;0.50;;;21.50;51.70;;;;;;4141327;28;20045;-54
2023/05/04 06:37:02;;;;;;;0.90;0.45;;;21.50;51.80;;;;;;4140489;28;20698;-56
2023/05/04 06:39:24;;;;;;;1.23;0.43;;;21.60;52.20;;;;;;4118571;28;20316;-53
2023/05/04 06:41:47;;;;;;;0.75;0.65;;;21.70;51.90;;;;;;4116821;28;20050;-55
2023/05/04 06:44:09;;;;;;;1.48;0.73;;;22.00;51.00;;;;;;4136361;28;20061;-52
2023/05/04 06:46:36;;;;;;;1.30;0.60;;;22.40;49.80;;;;;;4135819;28;20124;-54
2023/05/04 06:48:58;;;;;;;1.73;0.70;;;23.10;48.20;;;;;;4118515;28;20161;-54
2023/05/04 06:51:21;;;;;;;2.30;0.60;;;23.60;46.70;;;;;;4136166;28;20113;-56
2023/05/04 06:53:43;;;;;;;0.82;0.50;;;24.00;45.80;;;;;;4140902;28;20494;-55
2023/05/04 06:56:06;;;;;;;1.20;0.60;;;23.70;46.00;;;;;;4139236;28;20037;-54
2023/05/04 06:58:28;;;;;;;0.85;0.65;;;23.20;47.10;;;;;;4139165;28;20117;-53
2023/05/04 07:00:51;;;;;;;1.38;0.60;;;22.70;48.00;;;;;;4140584;28;20041;-54
2023/05/04 07:03:14;;;;;;;1.95;0.77;;;22.30;48.80;;;;;;4133526;28;20049;-56
2023/05/04 07:05:36;;;;;;;1.55;0.60;;;22.00;49.40;;;;;;4142203;28;20099;-57
2023/05/04 07:07:59;;;;;;;1.67;0.70;;;21.80;50.00;;;;;;4136749;28;20478;-52
2023/05/04 07:10:21;;;;;;;1.08;0.70;;;21.70;50.30;;;;;;4139674;28;20037;-55
2023/05/04 07:12:43;;;;;;;1.77;0.68;;;21.50;50.60;;;;;;4144075;28;20053;-56
2023/05/04 07:15:07;;;;;;;0.63;0.30;;;21.50;50.90;;;;;;4144401;28;20538;-53
2023/05/04 07:17:31;;;;;;;0.65;0.55;;;21.40;51.10;;;;;;4119803;28;20141;-55
2023/05/04 07:19:53;;;;;;;;;;;21.30;51.40;;;;;;4145735;28;20128;-57
2023/05/04 07:22:16;;;;;;;0.57;0.40;;;21.30;51.40;;;;;;4138198;28;19924;-52
2023/05/04 07:24:38;;;;;;;1.52;0.60;;;21.20;51.50;;;;;;4144472;28;20085;-54
2023/05/04 07:27:00;;;;;;;2.05;0.63;;;21.20;51.70;;;;;;4117639;28;20446;-55
2023/05/04 07:29:23;;;;;;;1.45;0.77;;;21.10;51.80;;;;;;4137627;28;20030;-55
2023/05/04 07:31:45;;;;;;;0.95;0.68;;;21.10;51.90;;;;;;4145234;28;20046;-56
2023/05/04 07:34:08;;;;;;;1.77;0.90;;;21.10;52.10;;;;;;4134151;28;20129;-55
2023/05/04 07:36:30;;;;;;;1.67;0.82;;;21.00;52.20;;;;;;4142444;28;20038;-55
2023/05/04 07:38:53;;;;;;;0.82;0.68;;;21.00;52.30;;;;;;4136867;28;20037;-55
2023/05/04 07:41:15;;;;;;;2.08;1.05;;;21.00;52.30;;;;;;4129766;28;20600;-53
2023/05/04 07:43:38;;;;;;;1.30;0.95;;;21.00;52.40;;;;;;4142728;28;20122;-55
2023/05/04 07:46:00;;;;;;;1.17;0.95;;;20.90;52.50;;;;;;4139175;28;20026;-55
2023/05/04 07:48:22;;;;;;;1.90;0.73;;;21.00;52.60;;;;;;4141400;28;20066;-55
2023/05/04 07:50:45;;;;;;;1.33;0.77;;;20.90;52.60;;;;;;4144882;28;20162;-54
2023/05/04 07:53:08;;;;;;;1.55;0.90;;;20.90;52.70;;;;;;4142589;28;20029;-55
2023/05/04 07:55:30;;;;;;;1.88;0.98;;;20.90;52.80;;;;;;4130987;28;20461;-56
2023/05/04 07:57:53;;;;;;;1.98;1.20;;;20.80;52.90;;;;;;4142387;28;20486;-55
2023/05/04 08:00:16;;;;;;;2.35;1.20;;;20.80;53.10;;;;;;4137607;28;20087;-56
2023/05/04 08:02:38;;;;;;;2.42;1.20;;;20.80;53.30;;;;;;4143754;28;20158;-55
2023/05/04 08:05:00;;;;;;;2.20;1.33;;;20.80;53.50;;;;;;4120421;28;20042;-56
2023/05/04 08:07:23;;;;;;;2.50;1.08;;;20.80;53.50;;;;;;4128668;28;20494;-55
2023/05/04 08:09:45;;;;;;;1.90;1.15;;;20.90;53.70;;;;;;4142448;28;20092;-53
2023/05/04 08:12:08;;;;;;;2.58;1.10;;;20.80;53.70;;;;;;4144454;28;20449;-55
2023/05/04 08:14:30;;;;;;;1.52;0.90;;;20.80;53.70;;;;;;4139939;28;20034;-55
2023/05/04 08:16:53;;;;;;;1.60;1.15;;;20.80;53.80;;;;;;4140743;28;20493;-55
2023/05/04 08:19:15;;;;;;;2.33;1.17;;;20.80;53.90;;;;;;4123080;28;20038;-50
2023/05/04 08:21:39;;;;;;;1.90;1.15;;;20.80;53.90;;;;;;4140725;28;20573;-55
2023/05/04 08:24:01;;;;;;;1.65;0.80;;;20.70;53.90;;;;;;4134985;28;20039;-55
2023/05/04 08:26:24;;;;;;;2.13;0.88;;;20.70;54.00;;;;;;4139654;28;20034;-54
2023/05/04 08:28:47;;;;;;;1.92;0.98;;;20.70;54.10;;;;;;4143688;28;20052;-53
2023/05/04 08:31:09;;;;;;;1.30;1.00;;;20.70;54.10;;;;;;4140198;28;20092;-54
2023/05/04 08:33:33;;;;;;;2.03;0.98;;;20.70;54.20;;;;;;4141011;28;20474;-49
2023/05/04 08:35:56;;;;;;;1.50;0.93;;;20.70;54.20;;;;;;4142710;28;20046;-54
2023/05/04 08:38:19;;;;;;;1.92;0.77;;;20.60;54.20;;;;;;4141813;28;20038;-54
2023/05/04 08:40:45;;;;;;;1.85;0.90;;;20.70;54.30;;;;;;4139741;28;20522;-55
2023/05/04 08:43:07;;;;;;;2.58;1.10;;;20.70;54.30;;;;;;4137742;28;20200;-54
2023/05/04 08:45:30;;;;;;;1.88;1.10;;;20.70;54.40;;;;;;4138101;28;20121;-57
2023/05/04 08:47:53;;;;;;;1.70;1.27;;;20.60;54.40;;;;;;4131960;28;20145;-55
2023/05/04 08:50:15;;;;;;;2.35;0.90;;;20.60;54.40;;;;;;4137042;28;20279;-52
2023/05/04 08:52:43;;;;;;;1.33;0.90;;;20.60;54.50;;;;;;4131730;28;20445;-53
2023/05/04 08:55:06;;;;;;;1.38;1.00;;;20.60;54.50;;;;;;4134283;28;20165;-53
2023/05/04 08:57:30;;;;;;;2.58;1.30;;;20.60;54.60;;;;;;4134330;28;20136;-54
2023/05/04 08:59:54;;;;;;;0.88;0.73;;;20.60;54.60;;;;;;4131839;28;20049;-53
2023/05/04 09:02:20;;;;;;;1.83;1.20;;;20.60;54.60;;;;;;4120479;28;20084;-55
2023/05/04 09:04:43;;;;;;;1.95;1.20;;;20.60;54.70;;;;;;4131557;28;20036;-55
2023/05/04 09:07:05;;;;;;;2.25;1.23;;;20.60;54.70;;;;;;4133050;28;20478;-57
2023/05/04 09:09:30;;;;;;;2.95;1.50;;;20.50;54.70;;;;;;4116241;28;20600;-57
2023/05/04 09:11:52;;;;;;;2.95;1.65;;;20.50;54.70;;;;;;4117014;28;20042;-54
2023/05/04 09:14:15;;;;;;;1.77;1.27;;;20.50;54.80;;;;;;4132152;28;20133;-54
2023/05/04 09:16:38;;;;;;;1.98;1.30;;;20.50;54.80;;;;;;4133259;28;20045;-53
2023/05/04 09:19:00;;;;;;;2.45;1.70;;;20.50;54.80;;;;;;4129635;28;20049;-58
2023/05/04 09:21:33;;;;;;;2.92;1.90;;;20.50;54.90;;;;;;4134050;28;20026;-56
2023/05/04 09:23:55;;;;;;;1.90;1.55;;;20.50;54.90;;;;;;4136120;28;20038;-57
2023/05/04 09:26:38;;;;;;;2.30;1.10;;;20.50;54.90;;;;;;4132098;28;20073;-57
2023/05/04 09:29:14;;;;;;;3.20;1.80;;;20.50;54.90;;;;;;4130133;28;20065;-58
2023/05/04 09:31:54;;;;;;;2.20;1.40;;;20.40;54.90;;;;;;4127925;28;20050;-57
2023/05/04 09:34:19;;;;;;;2.05;1.45;;;20.50;55.00;;;;;;4125403;28;20042;-56
2023/05/04 09:36:41;;;;;;;2.92;1.70;;;20.40;55.10;;;;;;4128349;28;20088;-56
2023/05/04 09:39:11;;;;;;;2.95;1.38;;;20.40;55.20;;;;;;4137057;28;20041;-51
2023/05/04 09:41:34;;;;;;;3.05;1.98;;;20.40;55.20;;;;;;4131777;28;20448;-54
2023/05/04 09:43:56;;;;;;;3.13;1.60;;;20.40;55.20;;;;;;4134859;28;20060;-52
2023/05/04 09:46:20;;;;;;;2.40;1.50;;;20.40;55.20;;;;;;4132861;28;20100;-56
2023/05/04 09:48:52;;;;;;;2.75;1.60;;;20.40;55.20;;;;;;4130411;28;20042;-55
2023/05/04 09:51:16;;;;;;;1.23;0.90;;;20.40;55.20;;;;;;4135506;28;20449;-55
2023/05/04 09:53:42;;;;;;;2.00;1.37;;;20.40;55.30;;;;;;4136337;28;20045;-53
2023/05/04 09:56:33;;;;;;;2.03;1.30;;;20.30;55.30;;;;;;4130337;28;20583;-54
2023/05/04 09:58:59;;;;;;;2.60;1.50;;;20.30;55.30;;;;;;4133943;28;20064;-55
2023/05/04 10:01:22;;;;;;;1.77;1.20;;;20.30;55.30;;;;;;4130776;28;20105;-52
2023/05/04 10:03:45;;;;;;;2.45;1.30;;;20.30;55.30;;;;;;4118184;28;20046;-51
2023/05/04 10:06:08;;;;;;;1.75;0.90;;;20.30;55.40;;;;;;4127812;28;20056;-55
2023/05/04 10:08:32;;;;;;;3.10;1.40;;;20.30;55.40;;;;;;4136040;28;20049;-54
2023/05/04 10:10:54;;;;;;;;;;;20.30;55.40;;;;;;4134589;28;20049;-51
2023/05/04 10:13:16;;;;;;;2.03;0.93;;;20.30;55.40;;;;;;4128438;28;20086;-54
2023/05/04 10:16:00;;;;;;;1.45;1.00;;;20.30;55.50;;;;;;4131464;28;20045;-51
2023/05/04 10:18:48;;;;;;;1.60;1.10;;;20.30;55.50;;;;;;4121387;28;20497;-54
2023/05/04 10:21:32;;;;;;;1.98;1.10;;;20.30;55.60;;;;;;4124875;28;20042;-52
2023/05/04 10:24:03;;;;;;;2.70;1.23;;;20.20;55.50;;;;;;4133694;28;20597;-55
2023/05/04 10:26:32;;;;;;;1.30;0.93;;;20.20;55.60;;;;;;4132837;28;20537;-55
2023/05/04 10:29:32;;;;;;;1.38;1.00;;;20.20;55.60;;;;;;4138802;28;20034;-53
2023/05/04 10:31:55;;;;;;;1.10;0.80;;;20.20;55.70;;;;;;4051933;29;20037;-54
2023/05/04 10:34:32;;;;;;;1.13;0.80;;;20.20;55.70;;;;;;4134248;28;20072;-55
2023/05/04 10:36:55;;;;;;;1.05;0.93;;;20.20;55.80;;;;;;4133624;28;20447;-51
2023/05/04 10:39:22;;;;;;;1.52;0.93;;;20.20;55.70;;;;;;4141198;28;20057;-54
2023/05/04 10:42:06;;;;;;;1.00;0.90;;;20.20;55.80;;;;;;4142003;28;20045;-54
2023/05/04 10:44:33;;;;;;;0.88;0.70;;;20.20;55.80;;;;;;4138384;28;20045;-53
2023/05/04 10:47:02;;;;;;;1.25;0.80;;;20.20;55.80;;;;;;4144595;28;20124;-53
2023/05/04 10:49:25;;;;;;;1.08;0.88;;;20.20;55.80;;;;;;4145957;28;20099;-54
2023/05/04 10:51:47;;;;;;;1.27;0.80;;;20.20;55.90;;;;;;4140729;28;20065;-55
2023/05/04 10:54:20;;;;;;;0.95;0.70;;;20.20;55.90;;;;;;4141517;28;20466;-54
2023/05/04 10:56:43;;;;;;;1.38;0.90;;;20.20;55.90;;;;;;4143956;28;20038;-51
2023/05/04 10:59:09;;;;;;;1.77;1.05;;;20.10;55.90;;;;;;4143027;28;20045;-54
2023/05/04 11:01:44;;;;;;;1.23;0.73;;;20.10;56.00;;;;;;4136723;28;20080;-55
2023/05/04 11:04:17;;;;;;;2.20;0.88;;;20.10;55.90;;;;;;4145521;28;20068;-56
2023/05/04 11:06:39;;;;;;;1.75;0.82;;;20.10;56.00;;;;;;4145683;28;20409;-51
2023/05/04 11:09:05;;;;;;;1.08;0.90;;;20.10;56.00;;;;;;4145743;28;20041;-50
2023/05/04 11:11:27;;;;;;;1.13;0.88;;;20.10;56.00;;;;;;4136486;28;20458;-55
2023/05/04 11:13:51;;;;;;;1.08;0.77;;;20.10;56.00;;;;;;4142280;28;20041;-49
2023/05/04 11:16:21;;;;;;;1.45;0.93;;;20.10;56.10;;;;;;4124412;28;20474;-55
2023/05/04 11:18:44;;;;;;;1.33;0.70;;;20.10;56.10;;;;;;4145249;28;20895;-50
2023/05/04 11:21:08;;;;;;;1.20;0.73;;;20.10;56.10;;;;;;4144150;28;20504;-56
2023/05/04 11:23:31;;;;;;;;;;;20.10;56.10;;;;;;4142942;28;20755;-56
2023/05/04 11:25:53;;;;;;;0.90;0.70;;;20.10;56.20;;;;;;4135547;28;19920;-54
2023/05/04 11:28:16;;;;;;;1.58;0.85;;;20.00;56.10;;;;;;4141614;28;20045;-60
2023/05/04 11:30:41;;;;;;;1.25;0.95;;;20.00;56.20;;;;;;4138256;28;20038;-57
2023/05/04 11:33:10;;;;;;;;;;;20.00;56.80;;;;;;4144251;28;20083;-61
2023/05/04 11:35:33;;;;;;;3.17;1.10;;;20.00;57.40;;;;;;4142391;28;19909;-59
2023/05/04 11:37:56;;;;;;;1.95;0.82;;;20.10;57.70;;;;;;4140169;28;20065;-62
2023/05/04 11:40:22;;;;;;;2.33;0.95;;;20.10;57.90;;;;;;4142347;28;20058;-60
2023/05/04 11:42:47;;;;;;;2.42;1.20;;;20.10;57.90;;;;;;4139479;28;20050;-59
2023/05/04 11:45:22;;;;;;;2.72;1.00;;;20.10;57.90;;;;;;4141767;28;20136;-58
2023/05/04 11:47:46;;;;;;;3.50;1.20;;;20.10;58.10;;;;;;4132891;28;20034;-57
2023/05/04 11:50:13;;;;;;;1.52;0.90;;;20.20;58.10;;;;;;4142044;28;20065;-58
2023/05/04 11:52:39;;;;;;;3.42;0.70;;;20.20;58.10;;;;;;4142068;28;20033;-58
2023/05/04 11:55:02;;;;;;;6.55;1.20;;;20.20;58.20;;;;;;4145934;28;20045;-52
2023/05/04 11:57:24;;;;;;;3.47;1.10;;;20.20;58.10;;;;;;4138537;28;20054;-49
2023/05/04 11:59:50;;;;;;;3.75;0.95;;;20.20;57.50;;;;;;4143936;28;20057;-51
2023/05/04 12:02:17;;;;;;;1.75;0.93;;;20.20;57.40;;;;;;4144856;28;20056;-54
2023/05/04 12:04:39;;;;;;;2.85;1.30;;;20.20;57.30;;;;;;4136356;28;20042;-53
2023/05/04 12:07:07;;;;;;;4.57;1.80;;;20.20;57.20;;;;;;4142811;28;20038;-57
2023/05/04 12:09:29;;;;;;;5.93;1.85;;;20.20;57.80;;;;;;4137543;28;20095;-59
2023/05/04 12:11:55;;;;;;;6.47;1.17;;;20.10;58.10;;;;;;4135523;28;20069;-59
2023/05/04 12:14:18;;;;;;;4.35;1.10;;;20.20;58.60;;;;;;4121703;28;20089;-58
2023/05/04 12:16:41;;;;;;;5.05;1.30;;;20.20;58.60;;;;;;4144261;28;20076;-58
2023/05/04 12:19:05;;;;;;;4.13;0.90;;;20.20;58.80;;;;;;4136983;28;20037;-58
2023/05/04 12:21:28;;;;;;;2.20;1.10;;;20.20;58.70;;;;;;4143263;28;20498;-59
2023/05/04 12:23:50;;;;;;;4.43;1.43;;;20.20;58.70;;;;;;4144087;28;20045;-59
2023/05/04 12:26:13;;;;;;;2.88;1.05;;;20.20;58.80;;;;;;4143278;28;20129;-56
2023/05/04 12:28:37;;;;;;;5.50;1.55;;;20.20;58.90;;;;;;4139716;28;20487;-59
2023/05/04 12:31:00;;;;;;;2.08;0.90;;;20.20;59.00;;;;;;4143753;28;20034;-57